Time;durP1;ratioP1;P1;durP2;ratioP2;P2;SDS_P1;SDS_P2;PMS_P1;PMS_P2;Temp;Humidity;BMP_temperature;BMP_pressure;BME280_temperature;BME280_humidity;BME280_pressure;Samples;Min_cycle;Max_cycle;Signal;HPM_P1;HPM_P2
2021/11/21 00:02:02;;;;;;;9.63;5.13;;;10.90;99.90;;;;;;4944650;29;20227;-80
2021/11/21 00:04:29;;;;;;;10.47;5.70;;;10.90;99.90;;;;;;4944039;29;20208;-80
2021/11/21 00:06:57;;;;;;;12.40;5.83;;;10.90;99.90;;;;;;4943898;29;20221;-78
2021/11/21 00:09:23;;;;;;;10.27;5.07;;;11.00;99.90;;;;;;4944138;28;20202;-79
2021/11/21 00:11:51;;;;;;;8.23;4.10;;;11.00;99.90;;;;;;4939796;29;20235;-79
2021/11/21 00:14:18;;;;;;;8.47;5.43;;;10.90;99.90;;;;;;4944658;28;20215;-79
2021/11/21 00:16:45;;;;;;;7.83;3.43;;;10.90;99.90;;;;;;4943795;29;20220;-78
2021/11/21 00:19:12;;;;;;;11.17;4.20;;;11.00;99.90;;;;;;4929341;29;20233;-79
2021/11/21 00:21:39;;;;;;;7.67;3.97;;;11.00;99.90;;;;;;4933291;29;20209;-80
2021/11/21 00:24:07;;;;;;;9.30;3.90;;;11.00;99.90;;;;;;4944316;29;20260;-80
2021/11/21 00:26:34;;;;;;;6.73;4.33;;;11.10;99.90;;;;;;4930464;29;20209;-79
2021/11/21 00:29:01;;;;;;;8.97;4.83;;;11.10;99.90;;;;;;4925647;29;20213;-79
2021/11/21 00:31:28;;;;;;;8.20;4.93;;;11.10;99.90;;;;;;4947487;28;20818;-78
2021/11/21 00:33:54;;;;;;;8.50;5.67;;;11.10;99.90;;;;;;4963825;28;20241;-79
2021/11/21 00:36:21;;;;;;;13.60;6.33;;;11.10;99.90;;;;;;4977056;28;20200;-80
2021/11/21 00:38:48;;;;;;;10.67;5.80;;;11.10;99.90;;;;;;4982646;28;20239;-79
2021/11/21 00:41:16;;;;;;;12.07;6.17;;;11.10;99.90;;;;;;4982862;28;20219;-78
2021/11/21 00:43:43;;;;;;;14.50;4.97;;;11.10;99.90;;;;;;5001754;28;20222;-80
2021/11/21 00:46:10;;;;;;;10.80;3.90;;;11.20;99.90;;;;;;4992806;28;20211;-80
2021/11/21 00:48:37;;;;;;;6.23;2.90;;;11.20;99.90;;;;;;4982717;28;20300;-79
2021/11/21 00:51:06;;;;;;;9.57;3.00;;;11.20;99.90;;;;;;4982739;28;21015;-81
2021/11/21 00:53:35;;;;;;;8.73;2.63;;;11.20;99.90;;;;;;4982409;28;20299;-78
2021/11/21 00:56:04;;;;;;;5.50;2.57;;;11.20;99.90;;;;;;4982820;28;20310;-79
2021/11/21 00:58:33;;;;;;;4.67;2.50;;;11.20;99.90;;;;;;4981364;28;20371;-80
2021/11/21 01:01:01;;;;;;;8.30;3.03;;;11.20;99.90;;;;;;4982543;28;20501;-78
2021/11/21 01:03:29;;;;;;;10.03;2.73;;;11.10;99.90;;;;;;4982008;28;20258;-81
2021/11/21 01:05:57;;;;;;;9.27;3.57;;;11.20;99.90;;;;;;4982178;28;20638;-80
2021/11/21 01:08:25;;;;;;;6.83;3.33;;;11.20;99.90;;;;;;4979885;28;20223;-79
2021/11/21 01:10:55;;;;;;;7.07;3.80;;;11.10;99.90;;;;;;5009070;28;20218;-80
2021/11/21 01:13:23;;;;;;;12.97;4.20;;;11.20;99.90;;;;;;5023415;28;20210;-80
2021/11/21 01:15:52;;;;;;;11.20;3.53;;;11.20;99.90;;;;;;5023705;28;20217;-79
2021/11/21 01:18:19;;;;;;;13.63;4.30;;;11.10;99.90;;;;;;5023681;28;20234;-79
2021/11/21 01:20:46;;;;;;;9.70;3.57;;;11.20;99.90;;;;;;5024651;28;20202;-80
2021/11/21 01:23:16;;;;;;;9.20;3.53;;;11.20;99.90;;;;;;5024699;28;20603;-80
2021/11/21 01:25:44;;;;;;;6.83;2.80;;;11.10;99.90;;;;;;5024505;28;20219;-79
2021/11/21 01:28:12;;;;;;;8.27;3.10;;;11.20;99.90;;;;;;5023572;28;20209;-78
2021/11/21 01:30:39;;;;;;;10.70;4.30;;;11.20;99.90;;;;;;5023709;28;20853;-79
2021/11/21 01:33:07;;;;;;;13.03;3.80;;;11.20;99.90;;;;;;5024504;28;20233;-81
2021/11/21 01:35:35;;;;;;;9.87;2.93;;;11.30;99.90;;;;;;5023249;28;20206;-79
2021/11/21 01:38:03;;;;;;;7.77;2.83;;;11.30;99.90;;;;;;5024325;28;20292;-80
2021/11/21 01:40:30;;;;;;;7.07;3.30;;;11.30;99.90;;;;;;5024305;28;20682;-79
2021/11/21 01:42:58;;;;;;;9.03;2.50;;;11.30;99.90;;;;;;5024188;28;20602;-81
2021/11/21 01:45:25;;;;;;;9.63;2.60;;;11.30;99.90;;;;;;5023254;28;20649;-80
2021/11/21 01:47:53;;;;;;;11.93;3.43;;;11.30;99.90;;;;;;5024291;28;20997;-79
2021/11/21 01:50:26;;;;;;;8.20;1.90;;;11.20;99.90;;;;;;5015711;28;20215;-78
2021/11/21 01:52:53;;;;;;;7.67;1.20;;;11.20;99.90;;;;;;5024378;28;20211;-78
2021/11/21 01:55:20;;;;;;;7.13;1.73;;;11.10;99.90;;;;;;5023783;28;20222;-82
2021/11/21 01:57:47;;;;;;;5.57;1.40;;;11.00;99.90;;;;;;5024195;28;20225;-80
2021/11/21 02:00:15;;;;;;;6.57;1.30;;;11.00;99.90;;;;;;5023944;28;20540;-81
2021/11/21 02:02:43;;;;;;;7.70;1.30;;;10.90;99.90;;;;;;5023841;28;20206;-79
2021/11/21 02:05:10;;;;;;;4.23;1.17;;;10.90;99.90;;;;;;5024202;28;20213;-82
2021/11/21 02:07:41;;;;;;;8.00;1.70;;;10.80;99.90;;;;;;5024273;28;20211;-80
2021/11/21 02:10:10;;;;;;;4.10;1.03;;;10.80;99.90;;;;;;5023233;28;20210;-80
2021/11/21 02:12:37;;;;;;;5.17;0.83;;;10.80;99.90;;;;;;5023219;28;20214;-79
2021/11/21 02:15:08;;;;;;;5.20;1.20;;;10.80;99.90;;;;;;5023422;28;20294;-79
2021/11/21 02:17:34;;;;;;;3.73;1.27;;;10.80;99.90;;;;;;5022309;28;20202;-80
2021/11/21 02:20:04;;;;;;;6.47;1.00;;;10.70;99.90;;;;;;5023911;28;20958;-80
2021/11/21 02:22:32;;;;;;;6.87;1.20;;;10.70;99.90;;;;;;5023291;28;20225;-80
2021/11/21 02:25:00;;;;;;;6.10;1.60;;;10.60;99.90;;;;;;5023145;28;20595;-79
2021/11/21 02:27:30;;;;;;;3.80;0.90;;;10.70;99.90;;;;;;5024034;28;20219;-80
2021/11/21 02:29:58;;;;;;;6.53;1.57;;;10.60;99.90;;;;;;5023159;28;20210;-80
2021/11/21 02:32:25;;;;;;;4.37;1.03;;;10.70;99.90;;;;;;5022871;28;20226;-79
2021/11/21 02:34:53;;;;;;;6.30;1.60;;;10.60;99.90;;;;;;5023811;28;20210;-80
2021/11/21 02:37:20;;;;;;;11.03;2.33;;;10.60;99.90;;;;;;5023985;28;20816;-80
2021/11/21 02:39:48;;;;;;;6.40;1.30;;;10.60;99.90;;;;;;5027858;28;20341;-79
2021/11/21 02:42:26;;;;;;;7.70;1.10;;;10.70;99.90;;;;;;5028675;28;20237;-80
2021/11/21 02:44:53;;;;;;;5.93;1.83;;;10.70;99.90;;;;;;5028771;28;20202;-81
2021/11/21 02:47:20;;;;;;;8.93;1.37;;;10.70;99.90;;;;;;5027877;28;20203;-79
2021/11/21 02:49:47;;;;;;;5.40;1.30;;;10.60;99.90;;;;;;5027506;28;20210;-78
2021/11/21 02:52:14;;;;;;;5.03;0.93;;;10.60;99.90;;;;;;5028819;28;20203;-79
2021/11/21 02:54:52;;;;;;;8.77;1.10;;;10.50;99.90;;;;;;5028206;28;20254;-81
2021/11/21 02:57:19;;;;;;;5.43;0.97;;;10.50;99.90;;;;;;5028600;28;20201;-79
2021/11/21 02:59:46;;;;;;;5.03;0.80;;;10.40;99.90;;;;;;5027445;28;20229;-79
2021/11/21 03:02:13;;;;;;;6.10;1.20;;;10.40;99.90;;;;;;5027357;28;20207;-80
2021/11/21 03:04:40;;;;;;;9.40;1.80;;;10.40;99.90;;;;;;5026689;28;20202;-80
2021/11/21 03:07:09;;;;;;;6.60;1.37;;;10.40;99.90;;;;;;5026181;28;20210;-81
2021/11/21 03:09:36;;;;;;;7.97;1.90;;;10.30;99.90;;;;;;5027167;28;20294;-81
2021/11/21 03:12:05;;;;;;;10.00;1.70;;;10.40;99.90;;;;;;5028035;28;20210;-80
2021/11/21 03:14:31;;;;;;;11.43;1.60;;;10.40;99.90;;;;;;5027252;28;20211;-79
2021/11/21 03:17:00;;;;;;;9.60;1.63;;;10.40;99.90;;;;;;5026948;28;20218;-79
2021/11/21 03:19:27;;;;;;;9.23;2.00;;;10.40;99.90;;;;;;5026213;28;20277;-79
2021/11/21 03:21:54;;;;;;;17.27;1.70;;;10.40;99.90;;;;;;5027102;28;20491;-80
2021/11/21 03:24:21;;;;;;;7.10;1.40;;;10.40;99.90;;;;;;5026807;28;20223;-79
2021/11/21 03:26:48;;;;;;;8.43;1.40;;;10.50;99.90;;;;;;5026310;28;20211;-80
2021/11/21 03:29:16;;;;;;;9.17;1.50;;;10.50;99.90;;;;;;5027174;28;20213;-79
2021/11/21 03:31:43;;;;;;;8.80;1.50;;;10.40;99.90;;;;;;5029233;28;20229;-80
2021/11/21 03:34:11;;;;;;;5.63;1.57;;;10.40;99.90;;;;;;5047215;28;20202;-79
2021/11/21 03:36:38;;;;;;;7.90;1.40;;;10.40;99.90;;;;;;5047524;28;20261;-79
2021/11/21 03:39:06;;;;;;;10.17;1.37;;;10.40;99.90;;;;;;5045732;28;20517;-79
2021/11/21 03:41:33;;;;;;;7.27;1.60;;;10.40;99.90;;;;;;5026487;28;20213;-80
2021/11/21 03:44:00;;;;;;;11.13;1.83;;;10.40;99.90;;;;;;5026876;28;20210;-81
2021/11/21 03:46:28;;;;;;;5.27;1.20;;;10.40;99.90;;;;;;5026013;28;20591;-79
2021/11/21 03:48:55;;;;;;;10.53;2.10;;;10.30;99.90;;;;;;5026605;28;20206;-79
2021/11/21 03:51:22;;;;;;;6.70;2.03;;;10.30;99.90;;;;;;5026617;28;20202;-80
2021/11/21 03:53:49;;;;;;;11.40;2.37;;;10.30;99.90;;;;;;5027029;28;20211;-79
2021/11/21 03:56:16;;;;;;;11.17;1.77;;;10.30;99.90;;;;;;5026589;28;20223;-79
2021/11/21 03:58:42;;;;;;;10.27;2.53;;;10.30;99.90;;;;;;5026400;28;20529;-81
2021/11/21 04:01:09;;;;;;;10.53;1.70;;;10.30;99.90;;;;;;5026561;28;20194;-80
2021/11/21 04:03:38;;;;;;;6.77;2.30;;;10.20;99.90;;;;;;5026025;28;20670;-81
2021/11/21 04:06:04;;;;;;;8.60;1.90;;;10.20;99.90;;;;;;5027281;28;20226;-79
2021/11/21 04:08:31;;;;;;;8.30;1.93;;;10.20;99.90;;;;;;5027048;28;20242;-79
2021/11/21 04:10:58;;;;;;;10.27;2.00;;;10.10;99.90;;;;;;5026803;28;20598;-79
2021/11/21 04:13:25;;;;;;;12.97;1.77;;;10.10;99.90;;;;;;5026963;28;20202;-80
2021/11/21 04:15:52;;;;;;;9.23;1.63;;;10.10;99.90;;;;;;5027201;28;20213;-80
2021/11/21 04:18:19;;;;;;;15.80;2.30;;;10.10;99.90;;;;;;5037444;28;20210;-80
2021/11/21 04:20:47;;;;;;;10.27;1.60;;;10.10;99.90;;;;;;5046607;28;20398;-78
2021/11/21 04:23:14;;;;;;;8.70;2.30;;;10.10;99.90;;;;;;5046425;28;20202;-80
2021/11/21 04:25:41;;;;;;;15.67;2.40;;;10.10;99.90;;;;;;5031567;28;20222;-79
2021/11/21 04:28:09;;;;;;;10.30;2.07;;;10.00;99.90;;;;;;5027057;28;20212;-79
2021/11/21 04:30:36;;;;;;;9.93;2.03;;;10.10;99.90;;;;;;5037400;28;20900;-80
2021/11/21 04:33:04;;;;;;;16.50;2.57;;;10.00;99.90;;;;;;5046640;28;20263;-80
2021/11/21 04:35:30;;;;;;;7.90;2.00;;;10.00;99.90;;;;;;5045425;28;20206;-79
2021/11/21 04:37:59;;;;;;;12.30;2.30;;;10.00;99.90;;;;;;5046881;28;20198;-79
2021/11/21 04:40:26;;;;;;;9.70;1.67;;;9.90;99.90;;;;;;5045300;28;20226;-79
2021/11/21 04:42:52;;;;;;;10.07;2.03;;;9.90;99.90;;;;;;5045746;28;20207;-80
2021/11/21 04:45:19;;;;;;;11.50;2.27;;;9.90;99.90;;;;;;5044921;28;20205;-78
2021/11/21 04:47:46;;;;;;;7.17;1.80;;;9.90;99.90;;;;;;5046057;28;20684;-79
2021/11/21 04:50:14;;;;;;;8.63;2.10;;;9.90;99.90;;;;;;5042862;28;20767;-78
2021/11/21 04:52:42;;;;;;;13.37;2.37;;;9.90;99.90;;;;;;5025696;28;20293;-79
2021/11/21 04:55:11;;;;;;;12.63;2.63;;;9.90;99.90;;;;;;5030636;28;20221;-81
2021/11/21 04:57:39;;;;;;;12.13;2.00;;;10.00;99.90;;;;;;5045364;28;20190;-79
2021/11/21 05:00:09;;;;;;;7.33;1.50;;;9.90;99.90;;;;;;5034974;28;20234;-80
2021/11/21 05:02:40;;;;;;;9.07;1.53;;;9.90;99.90;;;;;;5025108;28;20249;-80
2021/11/21 05:05:07;;;;;;;8.07;1.73;;;9.90;99.90;;;;;;5025554;28;20205;-80
2021/11/21 05:07:35;;;;;;;12.57;1.30;;;10.00;99.90;;;;;;5034280;28;20214;-79
2021/11/21 05:10:01;;;;;;;9.17;2.07;;;9.90;99.90;;;;;;5042313;28;20198;-81
2021/11/21 05:12:30;;;;;;;8.27;1.57;;;9.90;99.90;;;;;;5025499;28;20209;-80
2021/11/21 05:14:58;;;;;;;8.07;1.47;;;9.90;99.90;;;;;;5025209;28;20210;-80
2021/11/21 05:17:25;;;;;;;8.70;1.80;;;9.90;99.90;;;;;;5025091;28;20230;-81
2021/11/21 05:19:52;;;;;;;5.27;1.50;;;9.90;99.90;;;;;;5024431;28;20226;-78
2021/11/21 05:22:19;;;;;;;8.73;2.23;;;10.00;99.90;;;;;;5024812;28;20232;-79
2021/11/21 05:24:46;;;;;;;5.53;1.27;;;10.00;99.90;;;;;;5025023;28;20707;-79
2021/11/21 05:27:13;;;;;;;6.67;2.13;;;10.00;99.90;;;;;;5005413;28;20203;-80
2021/11/21 05:29:41;;;;;;;9.63;1.70;;;10.00;99.90;;;;;;5007446;28;20625;-79
2021/11/21 05:32:08;;;;;;;9.03;1.83;;;10.00;99.90;;;;;;5044862;28;20226;-81
2021/11/21 05:34:35;;;;;;;7.50;1.23;;;10.00;99.90;;;;;;5031150;28;20210;-80
2021/11/21 05:37:02;;;;;;;7.10;2.13;;;10.00;99.90;;;;;;5024636;28;20198;-80
2021/11/21 05:39:29;;;;;;;9.07;1.73;;;10.00;99.90;;;;;;5042796;28;20233;-78
2021/11/21 05:41:56;;;;;;;6.83;1.93;;;10.00;99.90;;;;;;5045588;28;20205;-79
2021/11/21 05:44:23;;;;;;;10.47;1.50;;;10.00;99.90;;;;;;5045002;28;20198;-80
2021/11/21 05:46:51;;;;;;;8.57;1.57;;;10.00;99.90;;;;;;5043822;28;20209;-79
2021/11/21 05:49:18;;;;;;;6.97;1.70;;;10.00;99.90;;;;;;5044500;28;20485;-80
2021/11/21 05:51:45;;;;;;;9.97;1.83;;;10.00;99.90;;;;;;5039951;28;20207;-79
2021/11/21 05:54:12;;;;;;;6.87;1.40;;;9.90;99.90;;;;;;5024444;28;20206;-79
2021/11/21 05:56:39;;;;;;;10.43;2.33;;;9.90;99.90;;;;;;5025070;28;20207;-80
2021/11/21 05:59:05;;;;;;;9.57;2.77;;;9.80;99.90;;;;;;5024610;28;20495;-80
2021/11/21 06:01:32;;;;;;;25.47;3.77;;;9.80;99.90;;;;;;5023531;28;20634;-79
2021/11/21 06:04:01;;;;;;;6.43;1.97;;;9.70;99.90;;;;;;5024184;28;20773;-79
2021/11/21 06:06:28;;;;;;;12.30;2.00;;;9.70;99.90;;;;;;5024932;28;20198;-80
2021/11/21 06:08:54;;;;;;;8.63;2.10;;;9.70;99.90;;;;;;5024936;28;20209;-80
2021/11/21 06:11:21;;;;;;;12.57;2.57;;;9.60;99.90;;;;;;5023581;28;20211;-80
2021/11/21 06:13:48;;;;;;;16.27;2.60;;;9.50;99.90;;;;;;5024002;28;20206;-77
2021/11/21 06:16:15;;;;;;;10.67;2.30;;;9.60;99.90;;;;;;5024398;28;20199;-78
2021/11/21 06:18:42;;;;;;;8.43;1.93;;;9.60;99.90;;;;;;5024497;28;20210;-78
2021/11/21 06:21:10;;;;;;;14.33;3.40;;;9.60;99.90;;;;;;5031561;28;20222;-78
2021/11/21 06:23:37;;;;;;;7.53;1.90;;;9.60;99.90;;;;;;5039677;28;20548;-77
2021/11/21 06:26:05;;;;;;;9.73;2.43;;;9.50;99.90;;;;;;5024945;28;20206;-79
2021/11/21 06:28:33;;;;;;;12.00;2.87;;;9.50;99.90;;;;;;5024181;28;20202;-78
2021/11/21 06:30:59;;;;;;;15.07;2.63;;;9.60;99.90;;;;;;5024304;28;20273;-77
2021/11/21 06:33:26;;;;;;;11.57;2.23;;;9.70;99.90;;;;;;5024310;28;20722;-78
2021/11/21 06:35:53;;;;;;;11.63;2.70;;;9.70;99.90;;;;;;5023655;28;20217;-78
2021/11/21 06:38:22;;;;;;;8.90;2.00;;;9.70;99.90;;;;;;5023191;28;20892;-79
2021/11/21 06:40:48;;;;;;;19.80;2.57;;;9.70;99.90;;;;;;5024739;28;20226;-78
2021/11/21 06:43:15;;;;;;;9.63;2.20;;;9.70;99.90;;;;;;5023885;28;20210;-79
2021/11/21 06:45:42;;;;;;;13.57;2.70;;;9.70;99.90;;;;;;5024496;28;20198;-79
2021/11/21 06:48:11;;;;;;;15.77;2.87;;;9.80;99.90;;;;;;5024760;28;20206;-79
2021/11/21 06:50:38;;;;;;;12.03;2.40;;;9.80;99.90;;;;;;5025381;28;20588;-80
2021/11/21 06:53:05;;;;;;;14.17;2.77;;;9.90;99.90;;;;;;5028255;28;20210;-79
2021/11/21 06:55:33;;;;;;;8.87;2.00;;;9.90;99.90;;;;;;5033185;28;20227;-78
2021/11/21 06:58:00;;;;;;;8.50;1.80;;;9.80;99.90;;;;;;5030339;28;20213;-78
2021/11/21 07:00:27;;;;;;;20.43;2.40;;;9.80;99.90;;;;;;5030203;28;20226;-78
2021/11/21 07:02:54;;;;;;;9.73;2.73;;;9.80;99.90;;;;;;5030985;28;20215;-78
2021/11/21 07:05:21;;;;;;;16.67;3.13;;;9.70;99.90;;;;;;5022366;28;20309;-78
2021/11/21 07:07:48;;;;;;;13.60;2.13;;;9.70;99.90;;;;;;5022969;28;20203;-80
2021/11/21 07:10:15;;;;;;;8.47;1.70;;;9.60;99.90;;;;;;5023887;28;20916;-79
2021/11/21 07:12:44;;;;;;;15.23;2.20;;;9.60;99.90;;;;;;5021224;28;20199;-77
2021/11/21 07:15:12;;;;;;;11.37;2.00;;;9.60;99.90;;;;;;5022463;28;20226;-78
2021/11/21 07:17:39;;;;;;;9.43;1.77;;;9.50;99.90;;;;;;5021503;28;20212;-79
2021/11/21 07:20:11;;;;;;;8.73;1.73;;;9.50;99.90;;;;;;5020835;28;20318;-78
2021/11/21 07:22:40;;;;;;;7.63;1.90;;;9.50;99.90;;;;;;5022758;28;20206;-80
2021/11/21 07:25:07;;;;;;;9.97;2.50;;;9.50;99.90;;;;;;5024089;28;20210;-80
2021/11/21 07:27:34;;;;;;;9.83;1.90;;;9.40;99.90;;;;;;5006820;28;20218;-80
2021/11/21 07:30:02;;;;;;;8.23;2.20;;;9.50;99.90;;;;;;5008022;28;20219;-80
2021/11/21 07:32:29;;;;;;;6.87;1.80;;;9.40;99.90;;;;;;5006740;28;20243;-79
2021/11/21 07:34:56;;;;;;;9.03;2.13;;;9.40;99.90;;;;;;5018340;28;20202;-78
2021/11/21 07:37:22;;;;;;;7.57;1.40;;;9.40;99.90;;;;;;5025921;28;20218;-78
2021/11/21 07:39:49;;;;;;;5.23;1.83;;;9.40;99.90;;;;;;5026463;28;20199;-78
2021/11/21 07:42:16;;;;;;;9.73;1.97;;;9.30;99.90;;;;;;5025857;28;20221;-80
2021/11/21 07:44:43;;;;;;;12.23;1.87;;;9.40;99.90;;;;;;5026450;28;20918;-80
2021/11/21 07:47:11;;;;;;;6.93;1.40;;;9.40;99.90;;;;;;5026132;28;20248;-80
2021/11/21 07:49:38;;;;;;;9.07;1.80;;;9.40;99.90;;;;;;5025155;28;20206;-80
2021/11/21 07:52:05;;;;;;;13.23;2.20;;;9.40;99.90;;;;;;5026020;28;20430;-78
2021/11/21 07:54:32;;;;;;;14.87;2.13;;;9.40;99.90;;;;;;5026281;28;20242;-78
2021/11/21 07:56:59;;;;;;;8.93;1.80;;;9.50;99.90;;;;;;5025894;28;20238;-81
2021/11/21 07:59:26;;;;;;;9.63;1.90;;;9.50;99.90;;;;;;5025521;28;20257;-77
2021/11/21 08:01:53;;;;;;;15.37;2.50;;;9.60;99.90;;;;;;5025116;28;20226;-78
2021/11/21 08:04:21;;;;;;;7.30;1.73;;;9.60;99.90;;;;;;5024923;28;20215;-78
2021/11/21 08:06:48;;;;;;;6.90;1.23;;;9.70;99.90;;;;;;5025124;28;20229;-78
2021/11/21 08:09:15;;;;;;;9.07;1.60;;;9.60;99.90;;;;;;5025228;28;20218;-80
2021/11/21 08:11:42;;;;;;;8.77;1.77;;;9.60;99.90;;;;;;5025016;28;20568;-79
2021/11/21 08:14:08;;;;;;;10.60;2.23;;;9.60;99.90;;;;;;5025716;28;20520;-79
2021/11/21 08:16:35;;;;;;;7.80;1.37;;;9.70;99.90;;;;;;5025145;28;20206;-78
2021/11/21 08:19:02;;;;;;;5.37;1.37;;;9.70;99.90;;;;;;5025078;28;20306;-80
2021/11/21 08:21:30;;;;;;;5.03;1.77;;;9.70;99.90;;;;;;5025090;28;20226;-78
2021/11/21 08:23:57;;;;;;;5.63;1.50;;;9.70;99.90;;;;;;5006591;28;20186;-79
2021/11/21 08:26:34;;;;;;;6.97;1.40;;;9.70;99.90;;;;;;4951396;28;20187;-79
2021/11/21 08:29:01;;;;;;;6.73;1.27;;;9.70;99.90;;;;;;5025394;28;20190;-79
2021/11/21 08:31:28;;;;;;;3.83;1.10;;;9.80;99.90;;;;;;5024277;28;20238;-78
2021/11/21 08:33:55;;;;;;;4.97;1.80;;;9.80;99.90;;;;;;5040983;22;20250;-79
2021/11/21 08:36:22;;;;;;;9.07;2.23;;;9.80;99.90;;;;;;5023518;28;20207;-78
2021/11/21 08:38:50;;;;;;;6.67;1.77;;;9.80;99.90;;;;;;5024057;28;20520;-78
2021/11/21 08:41:24;;;;;;;6.47;1.70;;;9.90;99.90;;;;;;5024923;28;20227;-80
2021/11/21 08:43:51;;;;;;;5.93;1.43;;;9.90;99.90;;;;;;5025060;28;20614;-80
2021/11/21 08:46:18;;;;;;;5.57;1.70;;;9.90;99.90;;;;;;5024325;28;20198;-80
2021/11/21 08:48:45;;;;;;;6.57;1.50;;;9.90;99.90;;;;;;5024256;28;20548;-79
2021/11/21 08:51:12;;;;;;;8.73;1.43;;;9.90;99.90;;;;;;5024703;28;20229;-79
2021/11/21 08:53:39;;;;;;;8.43;1.90;;;9.90;99.90;;;;;;5023620;28;20210;-79
2021/11/21 08:56:07;;;;;;;8.03;1.07;;;9.90;99.90;;;;;;5024859;28;20231;-77
2021/11/21 08:58:34;;;;;;;8.60;1.53;;;9.90;99.90;;;;;;5024078;28;20214;-79
2021/11/21 09:01:01;;;;;;;5.80;1.10;;;10.00;99.90;;;;;;5024301;28;20222;-78
2021/11/21 09:03:29;;;;;;;4.13;1.10;;;10.00;99.90;;;;;;5024626;28;20210;-79
2021/11/21 09:05:57;;;;;;;8.60;1.50;;;9.90;99.90;;;;;;5024133;28;20195;-79
2021/11/21 09:08:24;;;;;;;7.50;1.40;;;9.90;99.90;;;;;;5024099;28;20214;-79
2021/11/21 09:10:51;;;;;;;9.60;1.93;;;10.00;99.90;;;;;;5024538;28;20256;-79
2021/11/21 09:13:20;;;;;;;6.80;1.77;;;10.10;99.90;;;;;;5023261;28;20206;-79
2021/11/21 09:15:47;;;;;;;7.57;1.40;;;10.10;99.90;;;;;;5024041;28;20206;-79
2021/11/21 09:18:14;;;;;;;5.17;1.50;;;10.10;99.90;;;;;;5023159;28;20207;-79
2021/11/21 09:20:42;;;;;;;8.00;1.70;;;10.10;99.90;;;;;;5023676;28;20233;-79
2021/11/21 09:23:11;;;;;;;6.40;1.90;;;10.10;99.90;;;;;;5023695;28;20195;-79
2021/11/21 09:25:38;;;;;;;7.87;1.40;;;10.20;99.90;;;;;;5022771;28;20202;-77
2021/11/21 09:28:05;;;;;;;8.57;1.43;;;10.30;99.90;;;;;;5023949;28;20207;-77
2021/11/21 09:30:33;;;;;;;5.77;0.83;;;10.40;99.90;;;;;;5023390;28;20218;-79
2021/11/21 09:33:00;;;;;;;3.37;0.87;;;10.50;99.90;;;;;;5023052;28;20249;-79
2021/11/21 09:35:27;;;;;;;4.43;0.87;;;10.50;99.90;;;;;;5023459;28;20198;-79
2021/11/21 09:37:54;;;;;;;9.80;1.17;;;10.40;99.90;;;;;;5022965;28;20207;-78
2021/11/21 09:40:21;;;;;;;6.13;1.70;;;10.30;99.90;;;;;;5023512;28;20210;-79
2021/11/21 09:42:48;;;;;;;7.77;1.50;;;10.20;99.90;;;;;;5024377;28;20277;-78
2021/11/21 09:45:16;;;;;;;5.37;2.47;;;10.20;99.90;;;;;;5024233;28;20207;-78
2021/11/21 09:47:49;;;;;;;8.13;1.23;;;10.10;99.90;;;;;;5023558;28;20529;-79
2021/11/21 09:50:16;;;;;;;8.77;1.77;;;10.00;99.90;;;;;;5024324;28;20199;-77
2021/11/21 09:52:42;;;;;;;7.63;1.43;;;9.90;99.90;;;;;;5023216;28;20214;-77
2021/11/21 09:55:10;;;;;;;8.53;1.60;;;9.90;99.90;;;;;;5021628;28;20222;-76
2021/11/21 09:57:37;;;;;;;10.37;2.27;;;9.90;99.90;;;;;;5024084;28;20219;-79
2021/11/21 10:00:07;;;;;;;8.30;1.60;;;9.90;99.90;;;;;;5023352;28;20610;-78
2021/11/21 10:02:36;;;;;;;12.10;2.00;;;9.90;99.90;;;;;;5023576;28;21001;-79
2021/11/21 10:05:07;;;;;;;10.37;2.10;;;9.90;99.90;;;;;;5023713;28;20581;-80
2021/11/21 10:07:36;;;;;;;29.20;18.27;;;10.00;99.90;;;;;;5023491;28;20203;-78
2021/11/21 10:10:06;;;;;;;15.83;6.47;;;10.10;99.90;;;;;;5023372;28;20203;-78
2021/11/21 10:12:38;;;;;;;21.07;10.30;;;10.30;99.90;;;;;;5024208;28;20202;-78
2021/11/21 10:15:08;;;;;;;10.93;4.00;;;10.50;99.90;;;;;;5022986;28;20215;-77
2021/11/21 10:17:36;;;;;;;15.93;6.23;;;10.60;99.90;;;;;;5022363;28;20292;-76
2021/11/21 10:20:19;;;;;;;11.37;4.67;;;10.60;99.90;;;;;;5024301;28;20206;-77
2021/11/21 10:22:52;;;;;;;17.60;7.33;;;10.60;99.90;;;;;;5022577;28;20314;-78
2021/11/21 10:25:42;;;;;;;16.57;6.23;;;10.60;99.90;;;;;;5023023;28;20206;-77
2021/11/21 10:28:12;;;;;;;14.27;6.37;;;10.50;99.90;;;;;;5040158;28;20205;-77
2021/11/21 10:31:11;;;;;;;12.53;2.50;;;10.50;99.90;;;;;;5029644;28;20214;-78
2021/11/21 10:33:41;;;;;;;12.17;4.47;;;10.50;99.90;;;;;;5027207;28;20300;-76
2021/11/21 10:36:12;;;;;;;11.47;2.77;;;10.50;99.90;;;;;;5023135;28;20603;-76
2021/11/21 10:38:42;;;;;;;7.93;2.30;;;10.60;99.90;;;;;;5021854;28;20206;-80
2021/11/21 10:41:12;;;;;;;8.30;2.70;;;10.60;99.90;;;;;;5024547;28;20639;-78
2021/11/21 10:43:48;;;;;;;9.53;1.87;;;10.80;99.90;;;;;;5042194;28;20194;-78
2021/11/21 10:46:28;;;;;;;12.87;1.70;;;10.90;99.90;;;;;;5039521;28;20213;-77
2021/11/21 10:48:55;;;;;;;6.07;1.80;;;11.10;99.90;;;;;;5022496;28;20618;-77
2021/11/21 10:51:25;;;;;;;12.23;1.53;;;11.10;99.90;;;;;;5022254;28;20846;-78
2021/11/21 10:53:53;;;;;;;8.13;1.80;;;11.10;99.90;;;;;;5022684;28;20203;-77
2021/11/21 10:56:20;;;;;;;8.63;1.90;;;10.90;99.90;;;;;;5022084;28;20604;-77
2021/11/21 10:58:50;;;;;;;9.37;1.57;;;10.80;99.90;;;;;;5023152;28;20671;-76
2021/11/21 11:01:22;;;;;;;6.93;1.60;;;10.70;99.90;;;;;;5031155;28;20228;-78
2021/11/21 11:04:09;;;;;;;6.40;1.60;;;10.60;99.90;;;;;;5046119;28;20210;-79
2021/11/21 11:06:38;;;;;;;9.87;2.73;;;10.60;99.90;;;;;;5040661;28;20209;-77
2021/11/21 11:09:20;;;;;;;9.07;2.60;;;10.60;99.90;;;;;;5045887;28;20206;-77
2021/11/21 11:11:47;;;;;;;10.63;2.63;;;10.70;99.90;;;;;;5045977;28;20284;-77
2021/11/21 11:14:18;;;;;;;7.50;1.80;;;10.70;99.90;;;;;;5044478;28;20206;-77
2021/11/21 11:16:47;;;;;;;10.83;3.97;;;10.90;99.90;;;;;;5026093;28;20206;-77
2021/11/21 11:19:15;;;;;;;13.13;4.83;;;10.90;99.90;;;;;;5039230;28;20264;-77
2021/11/21 11:21:44;;;;;;;8.20;2.00;;;10.90;99.90;;;;;;5045759;28;20225;-77
2021/11/21 11:24:12;;;;;;;15.77;3.90;;;11.00;99.90;;;;;;5044605;28;20212;-76
2021/11/21 11:26:38;;;;;;;8.87;2.43;;;11.00;99.90;;;;;;5024999;28;20194;-77
2021/11/21 11:29:16;;;;;;;8.37;3.07;;;11.00;99.90;;;;;;5026162;28;20609;-78
2021/11/21 11:31:43;;;;;;;10.13;3.13;;;11.00;99.90;;;;;;5025971;28;20237;-77
2021/11/21 11:34:34;;;;;;;9.97;3.57;;;10.80;99.90;;;;;;5025235;28;20253;-76
2021/11/21 11:37:04;;;;;;;7.60;3.13;;;10.60;99.90;;;;;;5025889;28;20302;-77
2021/11/21 11:39:39;;;;;;;7.37;1.63;;;10.50;99.90;;;;;;5025007;28;20848;-77
2021/11/21 11:42:37;;;;;;;6.70;1.40;;;10.50;99.90;;;;;;5025751;28;20229;-77
2021/11/21 11:45:06;;;;;;;5.77;1.13;;;10.50;99.90;;;;;;5025705;28;20206;-78
2021/11/21 11:47:34;;;;;;;5.30;1.30;;;10.60;99.90;;;;;;5026197;28;20233;-79
2021/11/21 11:50:01;;;;;;;4.97;1.20;;;10.60;99.90;;;;;;5024886;28;20225;-79
2021/11/21 11:52:55;;;;;;;7.87;1.50;;;10.50;99.90;;;;;;5025487;28;20194;-78
2021/11/21 11:55:22;;;;;;;4.97;1.43;;;10.60;99.90;;;;;;5024673;28;20230;-79
2021/11/21 11:57:49;;;;;;;5.20;1.37;;;10.70;99.90;;;;;;5025017;28;20202;-79
2021/11/21 12:00:33;;;;;;;6.87;1.70;;;10.90;99.90;;;;;;5025359;28;20218;-79
2021/11/21 12:03:00;;;;;;;11.13;2.20;;;11.10;99.90;;;;;;5025767;28;20741;-79
2021/11/21 12:05:33;;;;;;;14.27;1.57;;;11.10;99.90;;;;;;5024659;28;20787;-77
2021/11/21 12:08:15;;;;;;;6.23;2.00;;;11.00;99.90;;;;;;5024724;28;20619;-79
2021/11/21 12:10:48;;;;;;;5.93;1.00;;;10.90;99.90;;;;;;5023977;28;20202;-75
2021/11/21 12:13:32;;;;;;;5.73;1.00;;;10.90;99.90;;;;;;5024895;28;20205;-76
2021/11/21 12:16:01;;;;;;;3.13;0.90;;;10.70;99.90;;;;;;5024480;28;20210;-77
2021/11/21 12:18:57;;;;;;;5.67;0.97;;;10.60;99.90;;;;;;5025504;28;20206;-77
2021/11/21 12:21:41;;;;;;;7.07;1.00;;;10.40;99.90;;;;;;5019737;28;20206;-76
2021/11/21 12:24:21;;;;;;;2.47;1.00;;;10.30;99.90;;;;;;5025626;28;20206;-79
2021/11/21 12:26:48;;;;;;;5.40;1.00;;;10.20;99.90;;;;;;5025171;28;20898;-76
2021/11/21 12:29:31;;;;;;;6.43;0.93;;;10.20;99.90;;;;;;5024929;28;20202;-78
2021/11/21 12:32:15;;;;;;;6.47;1.53;;;10.10;99.90;;;;;;5025122;28;20202;-76
2021/11/21 12:34:43;;;;;;;6.97;1.30;;;10.20;99.90;;;;;;5030794;28;21034;-78
2021/11/21 12:37:17;;;;;;;9.90;1.80;;;10.20;99.90;;;;;;5026290;28;20202;-79
2021/11/21 12:39:51;;;;;;;13.00;2.67;;;10.20;99.90;;;;;;5025464;28;20849;-77
2021/11/21 12:42:23;;;;;;;9.30;2.07;;;10.30;99.90;;;;;;5024080;28;20536;-78
2021/11/21 12:44:50;;;;;;;9.97;2.00;;;10.30;99.90;;;;;;5044596;28;20241;-77
2021/11/21 12:47:17;;;;;;;7.93;2.00;;;10.40;99.90;;;;;;5044869;28;20209;-82
2021/11/21 12:49:45;;;;;;;5.50;1.23;;;10.40;99.90;;;;;;5043228;28;20206;-79
2021/11/21 12:52:17;;;;;;;6.50;1.17;;;10.30;99.90;;;;;;5044028;28;20218;-78
2021/11/21 12:54:48;;;;;;;7.40;2.33;;;10.30;99.90;;;;;;5045083;28;20233;-77
2021/11/21 12:57:14;;;;;;;10.30;1.90;;;10.20;99.90;;;;;;5044506;28;20209;-78